createdAt,value
2023-05-24T00:00:53.463Z,100.00
2023-05-24T00:03:24.107Z,100.00
2023-05-24T00:05:54.584Z,100.00
2023-05-24T00:08:24.994Z,100.00
2023-05-24T00:10:55.280Z,100.00
2023-05-24T00:13:25.990Z,100.00
2023-05-24T00:15:56.298Z,100.00
2023-05-24T00:18:26.623Z,100.00
2023-05-24T00:20:58.698Z,100.00
2023-05-24T00:23:29.119Z,100.00
2023-05-24T00:25:59.874Z,100.00
2023-05-24T00:28:31.490Z,100.00
2023-05-24T00:31:02.346Z,100.00
2023-05-24T00:33:32.527Z,100.00
2023-05-24T00:36:02.828Z,100.00
2023-05-24T00:38:33.085Z,100.00
2023-05-24T00:41:03.424Z,100.00
2023-05-24T00:43:33.644Z,100.00
2023-05-24T00:46:22.530Z,100.00
2023-05-24T00:48:53.279Z,100.00
2023-05-24T00:51:30.462Z,100.00
2023-05-24T00:53:58.586Z,100.00
2023-05-24T00:56:28.016Z,100.00
2023-05-24T00:58:58.666Z,100.00
2023-05-24T01:01:31.357Z,100.00
2023-05-24T01:04:00.630Z,100.00
2023-05-24T01:06:36.502Z,100.00
2023-05-24T01:09:32.316Z,100.00
2023-05-24T01:12:26.693Z,100.00
2023-05-24T01:15:23.933Z,100.00
2023-05-24T01:18:11.809Z,100.00
2023-05-24T01:20:45.215Z,100.00
2023-05-24T01:23:34.548Z,100.00
2023-05-24T01:26:54.173Z,100.00
2023-05-24T01:29:29.097Z,100.00
2023-05-24T01:31:59.014Z,100.00
2023-05-24T01:34:27.395Z,100.00
2023-05-24T01:36:55.971Z,100.00
2023-05-24T01:39:29.963Z,100.00
2023-05-24T01:43:02.590Z,100.00
2023-05-24T01:45:56.970Z,100.00
2023-05-24T01:49:03.958Z,100.00
2023-05-24T01:51:54.538Z,100.00
2023-05-24T01:54:33.387Z,100.00
2023-05-24T01:57:09.155Z,100.00
2023-05-24T01:59:44.742Z,100.00
2023-05-24T02:02:14.365Z,100.00
2023-05-24T02:04:44.447Z,100.00
2023-05-24T02:07:14.381Z,100.00
2023-05-24T02:09:44.407Z,100.00
2023-05-24T02:12:18.130Z,100.00
2023-05-24T02:14:51.305Z,100.00
2023-05-24T02:17:21.465Z,100.00
2023-05-24T02:19:51.385Z,100.00
2023-05-24T02:22:22.560Z,100.00
2023-05-24T02:24:53.709Z,100.00
2023-05-24T02:27:22.722Z,100.00
2023-05-24T02:29:53.083Z,100.00
2023-05-24T02:32:23.349Z,100.00
2023-05-24T02:34:53.261Z,100.00
2023-05-24T02:37:23.159Z,100.00
2023-05-24T02:39:53.608Z,100.00
2023-05-24T02:42:23.857Z,100.00
2023-05-24T02:44:54.176Z,100.00
2023-05-24T02:47:23.952Z,100.00
2023-05-24T02:49:55.638Z,100.00
2023-05-24T02:52:27.088Z,100.00
2023-05-24T02:54:56.458Z,100.00
2023-05-24T02:57:26.966Z,100.00
2023-05-24T02:59:56.398Z,100.00
2023-05-24T03:02:28.933Z,100.00
2023-05-24T03:04:59.234Z,100.00
2023-05-24T03:07:27.890Z,100.00
2023-05-24T03:09:56.456Z,100.00
2023-05-24T03:12:25.181Z,100.00
2023-05-24T03:14:53.570Z,100.00
2023-05-24T03:17:22.055Z,100.00
2023-05-24T03:19:51.195Z,100.00
2023-05-24T03:22:20.060Z,100.00
2023-05-24T03:24:50.418Z,100.00
2023-05-24T03:27:19.217Z,100.00
2023-05-24T03:29:47.837Z,100.00
2023-05-24T03:32:16.372Z,100.00
2023-05-24T03:34:44.605Z,100.00
2023-05-24T03:37:14.560Z,100.00
2023-05-24T03:39:43.093Z,100.00
2023-05-24T03:42:17.097Z,100.00
2023-05-24T03:44:44.752Z,100.00
2023-05-24T03:47:13.206Z,100.00
2023-05-24T03:49:41.712Z,100.00
2023-05-24T03:52:09.944Z,100.00
2023-05-24T03:54:38.876Z,100.00
2023-05-24T03:57:07.810Z,100.00
2023-05-24T03:59:35.336Z,100.00
2023-05-24T04:02:03.972Z,100.00
2023-05-24T04:04:32.451Z,100.00
2023-05-24T04:07:00.912Z,100.00
2023-05-24T04:09:29.684Z,100.00
2023-05-24T04:11:57.886Z,100.00
2023-05-24T04:14:26.434Z,100.00
2023-05-24T04:16:57.698Z,100.00
2023-05-24T04:19:28.086Z,100.00
2023-05-24T04:21:58.444Z,100.00
2023-05-24T04:24:28.771Z,100.00
2023-05-24T04:26:59.047Z,100.00
2023-05-24T04:29:29.344Z,100.00
2023-05-24T04:32:00.955Z,100.00
2023-05-24T04:34:33.971Z,100.00
2023-05-24T04:37:04.546Z,100.00
2023-05-24T04:39:34.961Z,100.00
2023-05-24T04:42:10.020Z,100.00
2023-05-24T04:44:43.633Z,100.00
2023-05-24T04:47:15.380Z,100.00
2023-05-24T04:49:45.275Z,100.00
2023-05-24T04:52:13.848Z,100.00
2023-05-24T04:54:42.264Z,100.00
2023-05-24T04:57:10.652Z,100.00
2023-05-24T04:59:39.041Z,100.00
2023-05-24T05:02:07.537Z,100.00
2023-05-24T05:04:35.908Z,100.00
2023-05-24T05:07:04.537Z,100.00
2023-05-24T05:09:33.773Z,100.00
2023-05-24T05:12:02.972Z,100.00
2023-05-24T05:14:33.568Z,100.00
2023-05-24T05:17:03.819Z,100.00
2023-05-24T05:19:34.133Z,100.00
2023-05-24T05:22:04.588Z,100.00
2023-05-24T05:24:34.947Z,100.00
2023-05-24T05:27:06.421Z,100.00
2023-05-24T05:29:36.645Z,100.00
2023-05-24T05:32:07.360Z,100.00
2023-05-24T05:34:40.554Z,100.00
2023-05-24T05:37:11.257Z,100.00
2023-05-24T05:39:41.510Z,100.00
2023-05-24T05:42:14.693Z,100.00
2023-05-24T05:44:45.032Z,100.00
2023-05-24T05:47:15.395Z,100.00
2023-05-24T05:49:45.639Z,100.00
2023-05-24T05:52:15.870Z,100.00
2023-05-24T05:54:46.078Z,100.00
2023-05-24T05:57:16.565Z,100.00
2023-05-24T05:59:46.815Z,100.00
2023-05-24T06:02:19.182Z,100.00
2023-05-24T06:04:51.254Z,100.00
2023-05-24T06:07:21.589Z,100.00
2023-05-24T06:09:52.228Z,100.00
2023-05-24T06:12:22.857Z,100.00
2023-05-24T06:14:53.103Z,100.00
2023-05-24T06:17:24.786Z,100.00
2023-05-24T06:19:56.181Z,100.00
2023-05-24T06:22:29.989Z,100.00
2023-05-24T06:25:00.280Z,100.00
2023-05-24T06:27:30.738Z,100.00
2023-05-24T06:30:01.129Z,100.00
2023-05-24T06:32:31.503Z,100.00
2023-05-24T06:35:01.733Z,100.00
2023-05-24T06:37:31.973Z,100.00
2023-05-24T06:40:02.498Z,100.00
2023-05-24T06:42:32.710Z,100.00
2023-05-24T06:45:04.165Z,100.00
2023-05-24T06:47:34.475Z,100.00
2023-05-24T06:50:05.588Z,100.00
2023-05-24T06:52:36.379Z,100.00
2023-05-24T06:55:07.017Z,100.00
2023-05-24T06:57:37.214Z,100.00
2023-05-24T07:00:12.308Z,100.00
2023-05-24T07:02:42.794Z,100.00
2023-05-24T07:05:13.385Z,100.00
2023-05-24T07:07:44.572Z,100.00
2023-05-24T07:10:15.038Z,100.00
2023-05-24T07:12:43.426Z,100.00
2023-05-24T07:15:11.920Z,100.00
2023-05-24T07:17:42.133Z,100.00
2023-05-24T07:20:12.011Z,100.00
2023-05-24T07:22:42.109Z,100.00
2023-05-24T07:25:11.161Z,100.00
2023-05-24T07:27:39.001Z,100.00
2023-05-24T07:30:19.673Z,100.00
2023-05-24T07:32:59.049Z,100.00
2023-05-24T07:35:29.538Z,100.00
2023-05-24T07:37:58.828Z,100.00
2023-05-24T07:40:27.277Z,100.00
2023-05-24T07:42:56.294Z,100.00
2023-05-24T07:45:24.499Z,100.00
2023-05-24T07:47:54.503Z,100.00
2023-05-24T07:50:27.316Z,100.00
2023-05-24T07:52:57.883Z,100.00
2023-05-24T07:55:28.672Z,100.00
2023-05-24T07:57:57.016Z,100.00
2023-05-24T08:00:30.265Z,100.00
2023-05-24T08:03:00.980Z,100.00
2023-05-24T08:05:31.906Z,100.00
2023-05-24T08:08:02.132Z,100.00
2023-05-24T08:10:31.063Z,100.00
2023-05-24T08:13:01.353Z,100.00
2023-05-24T08:15:29.977Z,100.00
2023-05-24T08:18:00.335Z,100.00
2023-05-24T08:20:30.797Z,100.00
2023-05-24T08:23:01.789Z,100.00
2023-05-24T08:25:32.257Z,100.00
2023-05-24T08:28:02.733Z,100.00
2023-05-24T08:30:33.240Z,100.00
2023-05-24T08:33:03.728Z,100.00
2023-05-24T08:35:36.179Z,100.00
2023-05-24T08:38:07.776Z,100.00
2023-05-24T08:40:38.715Z,100.00
2023-05-24T08:43:12.245Z,100.00
2023-05-24T08:45:45.246Z,100.00
2023-05-24T08:48:18.578Z,100.00
2023-05-24T08:50:50.838Z,100.00
2023-05-24T08:53:23.852Z,100.00
2023-05-24T08:55:56.470Z,100.00
2023-05-24T08:58:27.286Z,100.00
2023-05-24T09:01:02.274Z,100.00
2023-05-24T09:03:37.013Z,100.00
2023-05-24T09:06:11.212Z,100.00
2023-05-24T09:08:44.182Z,100.00
2023-05-24T09:11:18.720Z,100.00
2023-05-24T09:13:50.058Z,100.00
2023-05-24T09:16:20.475Z,100.00
2023-05-24T09:18:50.830Z,98.57
2023-05-24T09:21:22.483Z,100.00
2023-05-24T09:23:54.683Z,98.09
2023-05-24T09:26:25.590Z,97.51
2023-05-24T09:28:57.925Z,95.81
2023-05-24T09:31:36.180Z,97.13
2023-05-24T09:34:16.971Z,96.77
2023-05-24T09:36:48.729Z,96.93
2023-05-24T09:39:21.111Z,95.86
2023-05-24T09:41:57.548Z,93.95
2023-05-24T09:44:30.851Z,93.45
2023-05-24T09:47:09.117Z,94.16
2023-05-24T09:49:40.039Z,93.31
2023-05-24T09:52:15.133Z,94.18
2023-05-24T09:54:48.343Z,93.67
2023-05-24T09:57:19.067Z,94.25
2023-05-24T09:59:52.741Z,97.05
2023-05-24T10:02:26.106Z,95.35
2023-05-24T10:05:03.930Z,94.45
2023-05-24T10:07:36.151Z,94.44
2023-05-24T10:10:07.896Z,94.07
2023-05-24T10:12:43.213Z,93.97
2023-05-24T10:15:13.534Z,92.11
2023-05-24T10:17:43.800Z,91.78
2023-05-24T10:20:14.622Z,90.05
2023-05-24T10:22:51.640Z,92.33
2023-05-24T10:25:27.788Z,90.62
2023-05-24T10:28:06.979Z,91.10
2023-05-24T10:31:03.895Z,92.59
2023-05-24T10:33:40.525Z,92.38
2023-05-24T10:36:16.259Z,94.13
2023-05-24T10:38:51.288Z,94.70
2023-05-24T10:41:22.535Z,88.21
2023-05-24T10:44:08.495Z,87.71
2023-05-24T10:47:11.316Z,87.23
2023-05-24T10:49:57.903Z,83.75
2023-05-24T10:52:36.774Z,81.74
2023-05-24T10:55:11.800Z,81.27
2023-05-24T10:57:42.434Z,82.65
2023-05-24T11:00:35.110Z,82.59
2023-05-24T11:03:11.436Z,81.16
2023-05-24T11:05:55.605Z,84.87
2023-05-24T11:08:36.123Z,86.25
2023-05-24T11:11:26.502Z,86.83
2023-05-24T11:13:58.227Z,85.60
2023-05-24T11:16:41.351Z,88.27
2023-05-24T11:19:25.168Z,88.70
2023-05-24T11:21:59.154Z,88.24
2023-05-24T11:24:29.291Z,86.84
2023-05-24T11:27:02.682Z,87.05
2023-05-24T11:29:31.340Z,87.11
2023-05-24T11:32:08.009Z,83.34
2023-05-24T11:34:40.126Z,86.61
2023-05-24T11:37:13.394Z,87.05
2023-05-24T11:39:49.616Z,83.73
2023-05-24T11:42:23.286Z,81.97
2023-05-24T11:44:55.579Z,83.89
2023-05-24T11:47:25.325Z,82.46
2023-05-24T11:49:53.187Z,79.14
2023-05-24T11:52:21.519Z,76.27
2023-05-24T11:54:51.411Z,78.33
2023-05-24T11:57:46.255Z,79.87
2023-05-24T12:00:28.474Z,76.79
2023-05-24T12:03:08.184Z,77.18
2023-05-24T12:05:38.404Z,76.00
2023-05-24T12:08:12.528Z,74.74
2023-05-24T12:10:47.433Z,78.13
2023-05-24T12:13:27.060Z,76.62
2023-05-24T12:15:58.458Z,77.03
2023-05-24T12:18:29.924Z,77.21
2023-05-24T12:21:00.598Z,76.22
2023-05-24T12:23:32.942Z,78.00
2023-05-24T12:26:04.666Z,74.66
2023-05-24T12:28:39.155Z,74.96
2023-05-24T12:31:10.282Z,75.24
2023-05-24T12:33:40.532Z,71.33
2023-05-24T12:36:10.926Z,73.81
2023-05-24T12:38:40.532Z,75.90
2023-05-24T12:41:13.911Z,73.17
2023-05-24T12:43:44.760Z,69.34
2023-05-24T12:46:15.181Z,73.42
2023-05-24T12:48:45.709Z,70.63
2023-05-24T12:51:15.922Z,68.63
2023-05-24T12:53:46.594Z,70.27
2023-05-24T12:56:16.909Z,73.62
2023-05-24T12:58:47.582Z,71.51
2023-05-24T13:01:18.366Z,72.86
2023-05-24T13:03:48.797Z,72.17
2023-05-24T13:06:19.303Z,72.65
2023-05-24T13:08:49.739Z,70.90
2023-05-24T13:11:20.203Z,70.04
2023-05-24T13:13:50.423Z,71.25
2023-05-24T13:16:20.726Z,70.94
2023-05-24T13:18:51.523Z,71.14
2023-05-24T13:21:22.421Z,70.46
2023-05-24T13:23:52.679Z,70.10
2023-05-24T13:26:22.104Z,70.27
2023-05-24T13:29:11.769Z,71.50
2023-05-24T13:31:41.065Z,67.87
2023-05-24T13:34:11.743Z,68.53
2023-05-24T13:36:43.799Z,68.08
2023-05-24T13:39:16.542Z,66.93
2023-05-24T13:41:47.467Z,70.99
2023-05-24T13:44:18.378Z,70.04
2023-05-24T13:46:48.861Z,66.50
2023-05-24T13:49:19.165Z,68.13
2023-05-24T13:51:49.906Z,71.00
2023-05-24T13:54:20.128Z,70.28
2023-05-24T13:56:51.059Z,71.47
2023-05-24T13:59:21.335Z,69.82
2023-05-24T14:01:51.590Z,72.38
2023-05-24T14:04:21.948Z,71.07
2023-05-24T14:06:52.647Z,70.68
2023-05-24T14:09:23.819Z,70.69
2023-05-24T14:11:54.265Z,70.49
2023-05-24T14:16:57.594Z,66.29
2023-05-24T14:19:27.917Z,68.78
2023-05-24T14:21:58.156Z,66.99
2023-05-24T14:24:28.442Z,64.17
2023-05-24T14:26:58.663Z,63.74
2023-05-24T14:29:28.880Z,65.64
2023-05-24T14:31:59.204Z,64.17
2023-05-24T14:34:29.448Z,61.38
2023-05-24T14:36:59.635Z,62.75
2023-05-24T14:39:30.497Z,64.08
2023-05-24T14:42:01.514Z,61.36
2023-05-24T14:44:31.832Z,62.09
2023-05-24T14:47:02.056Z,59.53
2023-05-24T14:49:32.229Z,62.30
2023-05-24T14:52:03.618Z,60.90
2023-05-24T14:54:33.806Z,58.86
2023-05-24T14:57:04.371Z,58.71
2023-05-24T14:59:34.788Z,61.01
2023-05-24T15:02:05.225Z,55.49
2023-05-24T15:04:35.467Z,55.49
2023-05-24T15:07:06.029Z,55.88
2023-05-24T15:09:36.279Z,56.49
2023-05-24T15:12:11.732Z,58.41
2023-05-24T15:14:42.338Z,57.22
2023-05-24T15:17:12.945Z,55.61
2023-05-24T15:19:43.129Z,53.37
2023-05-24T15:22:13.479Z,54.21
2023-05-24T15:24:43.678Z,56.29
2023-05-24T15:27:13.908Z,53.66
2023-05-24T15:29:44.317Z,53.86
2023-05-24T15:32:14.575Z,54.46
2023-05-24T15:34:44.876Z,55.13
2023-05-24T15:37:13.323Z,56.33
2023-05-24T15:39:41.621Z,57.26
2023-05-24T15:42:14.075Z,58.37
2023-05-24T15:44:41.510Z,55.34
2023-05-24T15:47:10.142Z,57.13
2023-05-24T15:49:39.577Z,56.40
2023-05-24T15:52:10.809Z,52.31
2023-05-24T15:54:41.366Z,54.69
2023-05-24T15:57:11.811Z,51.62
2023-05-24T15:59:41.989Z,52.06
2023-05-24T16:02:12.485Z,51.57
2023-05-24T16:04:42.800Z,51.62
2023-05-24T16:07:13.152Z,52.69
2023-05-24T16:09:46.401Z,52.99
2023-05-24T16:12:18.343Z,51.71
2023-05-24T16:14:48.672Z,52.91
2023-05-24T16:17:19.388Z,51.75
2023-05-24T16:19:49.847Z,53.61
2023-05-24T16:22:20.092Z,53.90
2023-05-24T16:24:50.487Z,53.81
2023-05-24T16:27:20.729Z,53.75
2023-05-24T16:29:51.529Z,51.77
2023-05-24T16:32:21.757Z,53.25
2023-05-24T16:34:56.255Z,52.57
2023-05-24T16:37:27.498Z,52.95
2023-05-24T16:39:57.757Z,55.59
2023-05-24T16:42:28.401Z,57.91
2023-05-24T16:44:59.060Z,57.42
2023-05-24T16:47:30.017Z,56.46
2023-05-24T16:50:01.138Z,53.72
2023-05-24T16:52:30.379Z,54.70
2023-05-24T16:55:00.829Z,52.92
2023-05-24T16:57:34.573Z,53.24
2023-05-24T17:00:07.957Z,53.03
2023-05-24T17:02:38.087Z,51.36
2023-05-24T17:05:07.456Z,51.46
2023-05-24T17:07:37.138Z,50.90
2023-05-24T17:10:07.531Z,50.38
2023-05-24T17:12:36.196Z,49.69
2023-05-24T17:15:06.317Z,50.56
2023-05-24T17:17:34.113Z,50.60
2023-05-24T17:20:02.742Z,51.71
2023-05-24T17:22:31.463Z,49.33
2023-05-24T17:25:00.032Z,51.43
2023-05-24T17:27:28.446Z,51.22
2023-05-24T17:29:57.584Z,53.69
2023-05-24T17:32:25.954Z,57.21
2023-05-24T17:34:54.449Z,58.93
2023-05-24T17:37:23.352Z,62.09
2023-05-24T17:39:54.532Z,63.66
2023-05-24T17:42:25.543Z,66.10
2023-05-24T17:44:55.376Z,68.80
2023-05-24T17:47:25.158Z,68.31
2023-05-24T17:49:54.015Z,68.64
2023-05-24T17:52:31.647Z,70.53
2023-05-24T17:55:13.587Z,71.37
2023-05-24T17:57:54.397Z,72.38
2023-05-24T18:00:34.747Z,73.72
2023-05-24T18:03:15.836Z,71.87
2023-05-24T18:05:47.471Z,71.07
2023-05-24T18:08:15.905Z,71.41
2023-05-24T18:10:44.302Z,73.15
2023-05-24T18:13:13.288Z,73.88
2023-05-24T18:15:41.347Z,77.00
2023-05-24T18:18:09.715Z,77.91
2023-05-24T18:20:38.187Z,80.64
2023-05-24T18:23:06.459Z,83.83
2023-05-24T18:25:35.719Z,84.77
2023-05-24T18:28:03.425Z,86.19
2023-05-24T18:30:31.706Z,86.77
2023-05-24T18:33:05.370Z,88.61
2023-05-24T18:35:38.477Z,90.10
2023-05-24T18:38:08.818Z,92.20
2023-05-24T18:40:39.143Z,92.64
2023-05-24T18:43:09.442Z,94.12
2023-05-24T18:45:39.692Z,95.54
2023-05-24T18:48:09.894Z,97.01
2023-05-24T18:50:40.136Z,99.54
2023-05-24T18:53:10.443Z,100.00
2023-05-24T18:55:41.041Z,100.00
2023-05-24T18:58:11.416Z,100.00
2023-05-24T19:00:41.842Z,100.00
2023-05-24T19:03:13.482Z,100.00
2023-05-24T19:05:44.486Z,100.00
2023-05-24T19:08:15.037Z,100.00
2023-05-24T19:10:45.395Z,100.00
2023-05-24T19:13:15.964Z,100.00
2023-05-24T19:15:46.407Z,100.00
2023-05-24T19:18:16.801Z,100.00
2023-05-24T19:20:47.386Z,100.00
2023-05-24T19:23:17.795Z,100.00
2023-05-24T19:25:50.370Z,100.00
2023-05-24T19:28:20.837Z,100.00
2023-05-24T19:30:51.180Z,100.00
2023-05-24T19:33:19.723Z,100.00
2023-05-24T19:35:48.813Z,100.00
2023-05-24T19:38:18.103Z,100.00
2023-05-24T19:40:46.173Z,100.00
2023-05-24T19:43:14.433Z,100.00
2023-05-24T19:45:43.071Z,100.00
2023-05-24T19:48:11.327Z,100.00
2023-05-24T19:50:40.819Z,100.00
2023-05-24T19:53:09.180Z,100.00
2023-05-24T19:55:37.588Z,100.00
2023-05-24T19:58:06.070Z,100.00
2023-05-24T20:00:34.858Z,100.00
2023-05-24T20:03:03.200Z,100.00
2023-05-24T20:05:31.632Z,100.00
2023-05-24T20:08:00.071Z,100.00
2023-05-24T20:10:30.331Z,100.00
2023-05-24T20:13:00.226Z,100.00
2023-05-24T20:15:28.949Z,100.00
2023-05-24T20:17:59.728Z,100.00
2023-05-24T20:20:30.103Z,100.00
2023-05-24T20:23:00.541Z,100.00
2023-05-24T20:25:30.763Z,100.00
2023-05-24T20:28:01.086Z,100.00
2023-05-24T20:30:31.550Z,100.00
2023-05-24T20:33:02.175Z,100.00
2023-05-24T20:35:32.430Z,100.00
2023-05-24T20:38:03.012Z,100.00
2023-05-24T20:40:33.350Z,100.00
2023-05-24T20:43:04.239Z,100.00
2023-05-24T20:45:35.131Z,100.00
2023-05-24T20:48:03.130Z,100.00
2023-05-24T20:50:33.421Z,100.00
2023-05-24T20:53:02.422Z,100.00
2023-05-24T20:55:32.665Z,100.00
2023-05-24T20:58:03.243Z,100.00
2023-05-24T21:00:33.539Z,100.00
2023-05-24T21:03:04.009Z,100.00
2023-05-24T21:05:36.585Z,100.00
2023-05-24T21:08:06.563Z,100.00
2023-05-24T21:10:36.102Z,100.00
2023-05-24T21:13:04.491Z,100.00
2023-05-24T21:15:32.180Z,100.00
2023-05-24T21:18:00.761Z,100.00
2023-05-24T21:20:29.352Z,100.00
2023-05-24T21:22:57.778Z,100.00
2023-05-24T21:25:27.334Z,100.00
2023-05-24T21:27:56.324Z,100.00
2023-05-24T21:30:24.561Z,100.00
2023-05-24T21:32:52.845Z,100.00
2023-05-24T21:35:21.327Z,100.00
2023-05-24T21:37:50.027Z,100.00
2023-05-24T21:40:18.556Z,100.00
2023-05-24T21:42:47.153Z,100.00
2023-05-24T21:45:16.656Z,100.00
2023-05-24T21:47:45.268Z,100.00
2023-05-24T21:50:15.765Z,100.00
2023-05-24T21:52:43.991Z,100.00
2023-05-24T21:55:12.438Z,100.00
2023-05-24T21:57:40.924Z,100.00
2023-05-24T22:00:12.782Z,100.00
2023-05-24T22:02:43.243Z,100.00
2023-05-24T22:05:11.845Z,100.00
2023-05-24T22:07:40.134Z,100.00
2023-05-24T22:10:09.334Z,100.00
2023-05-24T22:12:37.045Z,100.00
2023-05-24T22:15:06.768Z,100.00
2023-05-24T22:17:37.132Z,100.00
2023-05-24T22:20:07.849Z,100.00
2023-05-24T22:22:48.998Z,100.00
2023-05-24T22:25:22.335Z,100.00
2023-05-24T22:27:51.820Z,100.00
2023-05-24T22:30:19.762Z,100.00
2023-05-24T22:32:47.724Z,100.00
2023-05-24T22:35:16.434Z,100.00
2023-05-24T22:37:44.718Z,100.00
2023-05-24T22:40:13.831Z,100.00
2023-05-24T22:42:41.666Z,100.00
2023-05-24T22:45:11.067Z,100.00
2023-05-24T22:47:41.309Z,100.00
2023-05-24T22:50:10.264Z,100.00
2023-05-24T22:52:42.603Z,100.00
2023-05-24T22:55:13.035Z,100.00
2023-05-24T22:57:41.825Z,100.00
2023-05-24T23:00:12.332Z,100.00
2023-05-24T23:02:42.769Z,100.00
2023-05-24T23:05:11.721Z,100.00
2023-05-24T23:07:41.542Z,100.00
2023-05-24T23:10:11.915Z,100.00
2023-05-24T23:12:42.451Z,100.00
2023-05-24T23:15:16.947Z,100.00
2023-05-24T23:17:48.379Z,100.00
2023-05-24T23:20:16.382Z,100.00
2023-05-24T23:22:44.831Z,100.00
2023-05-24T23:25:14.379Z,100.00
2023-05-24T23:27:43.053Z,100.00
2023-05-24T23:30:13.383Z,100.00
2023-05-24T23:32:42.089Z,100.00
2023-05-24T23:35:11.309Z,100.00
2023-05-24T23:37:39.624Z,100.00
2023-05-24T23:40:09.465Z,100.00
2023-05-24T23:42:38.054Z,100.00
2023-05-24T23:45:07.433Z,100.00
2023-05-24T23:47:35.106Z,100.00
2023-05-24T23:50:06.223Z,100.00
2023-05-24T23:52:35.527Z,100.00
2023-05-24T23:55:06.521Z,100.00
2023-05-24T23:57:35.893Z,100.00
